Time;durP1;ratioP1;P1;durP2;ratioP2;P2;SDS_P1;SDS_P2;PMS_P1;PMS_P2;Temp;Humidity;BMP_temperature;BMP_pressure;BME280_temperature;BME280_humidity;BME280_pressure;Samples;Min_cycle;Max_cycle;Signal;HPM_P1;HPM_P2
2023/01/02 00:00:33;;;;;;;3.70;1.75;;;;;11.10;94209.00;;;;7399929;19;20155;-73
2023/01/02 00:03:07;;;;;;;4.00;1.70;;;;;11.20;94210.00;;;;7401359;19;20159;-74
2023/01/02 00:05:35;;;;;;;6.53;1.83;;;;;11.20;94205.00;;;;7399436;19;20710;-74
2023/01/02 00:08:02;;;;;;;6.95;1.90;;;;;11.30;94204.00;;;;7399796;19;20145;-74
2023/01/02 00:10:44;;;;;;;4.20;1.90;;;;;11.40;94207.00;;;;7401950;19;20192;-74
2023/01/02 00:13:13;;;;;;;4.88;1.75;;;;;11.50;94203.00;;;;7400129;19;20132;-74
2023/01/02 00:15:47;;;;;;;5.80;1.60;;;;;11.60;94199.00;;;;7402900;19;20133;-73
2023/01/02 00:18:15;;;;;;;6.43;1.83;;;;;11.70;94197.00;;;;7400377;19;20117;-74
2023/01/02 00:20:44;;;;;;;3.00;1.70;;;;;11.90;94189.00;;;;7401086;19;20604;-74
2023/01/02 00:23:18;;;;;;;3.67;1.70;;;;;12.10;94180.00;;;;7399395;19;20207;-73
2023/01/02 00:25:47;;;;;;;4.15;1.70;;;;;12.20;94187.00;;;;7402302;19;20149;-74
2023/01/02 00:28:15;;;;;;;4.03;1.77;;;;;12.20;94191.00;;;;7399861;19;20160;-74
2023/01/02 00:30:53;;;;;;;4.75;1.70;;;;;12.30;94182.00;;;;7400310;19;20174;-73
2023/01/02 00:33:20;;;;;;;10.15;1.92;;;;;12.30;94177.00;;;;7401437;19;20536;-75
2023/01/02 00:35:48;;;;;;;4.22;1.80;;;;;12.30;94177.00;;;;7400743;19;20659;-73
2023/01/02 00:38:21;;;;;;;5.30;1.40;;;;;12.40;94173.00;;;;7394977;19;20635;-72
2023/01/02 00:40:49;;;;;;;6.38;1.80;;;;;12.40;94186.00;;;;7392298;19;20140;-73
2023/01/02 00:43:16;;;;;;;4.22;1.70;;;;;12.50;94183.00;;;;7399718;19;20148;-73
2023/01/02 00:45:53;;;;;;;2.85;1.75;;;;;12.50;94182.00;;;;7401739;19;20128;-73
2023/01/02 00:48:21;;;;;;;4.68;1.42;;;;;12.50;94187.00;;;;7399238;19;20141;-73
2023/01/02 00:50:48;;;;;;;9.57;2.00;;;;;12.30;94181.00;;;;7400247;19;20148;-73
2023/01/02 00:53:22;;;;;;;4.55;1.63;;;;;12.20;94177.00;;;;7398230;19;20145;-73
2023/01/02 00:55:49;;;;;;;8.02;2.22;;;;;12.20;94177.00;;;;7399843;19;20129;-73
2023/01/02 00:58:17;;;;;;;2.80;1.63;;;;;12.10;94180.00;;;;7398384;19;20146;-73
2023/01/02 01:00:51;;;;;;;2.85;1.50;;;;;12.00;94171.00;;;;7399797;19;20144;-73
2023/01/02 01:03:23;;;;;;;3.00;1.80;;;;;11.80;94188.00;;;;7397304;19;20588;-73
2023/01/02 01:05:50;;;;;;;3.08;1.67;;;;;11.80;94182.00;;;;7400149;19;20136;-73
2023/01/02 01:08:31;;;;;;;7.65;1.90;;;;;11.80;94186.00;;;;7396051;19;20156;-73
2023/01/02 01:11:07;;;;;;;4.10;1.80;;;;;11.90;94185.00;;;;7397587;19;20140;-73
2023/01/02 01:13:46;;;;;;;3.67;1.95;;;;;11.90;94181.00;;;;7396965;19;20153;-73
2023/01/02 01:16:16;;;;;;;3.03;1.80;;;;;11.80;94169.00;;;;7397360;19;20147;-73
2023/01/02 01:18:55;;;;;;;5.25;1.80;;;;;11.40;94172.00;;;;7396337;19;20145;-74
2023/01/02 01:21:23;;;;;;;6.13;1.73;;;;;11.10;94183.00;;;;7397291;19;20129;-73
2023/01/02 01:23:57;;;;;;;3.45;1.98;;;;;11.00;94186.00;;;;7397216;19;20208;-74
2023/01/02 01:26:25;;;;;;;6.55;1.75;;;;;11.00;94183.00;;;;7396666;19;20141;-73
2023/01/02 01:28:54;;;;;;;3.25;1.48;;;;;11.20;94195.00;;;;7396604;19;20494;-74
2023/01/02 01:31:28;;;;;;;3.97;1.88;;;;;11.30;94186.00;;;;7396884;19;20599;-74
2023/01/02 01:33:55;;;;;;;6.95;2.15;;;;;11.20;94188.00;;;;7398125;19;20123;-74
2023/01/02 01:36:24;;;;;;;4.38;1.92;;;;;11.10;94191.00;;;;7396635;19;20137;-74
2023/01/02 01:38:58;;;;;;;4.80;1.65;;;;;10.90;94189.00;;;;7395430;19;20160;-74
2023/01/02 01:41:26;;;;;;;5.57;1.98;;;;;10.80;94194.00;;;;7397129;19;20117;-74
2023/01/02 01:43:58;;;;;;;8.77;2.08;;;;;10.60;94194.00;;;;7395834;19;20630;-73
2023/01/02 01:46:48;;;;;;;3.90;2.25;;;;;10.80;94198.00;;;;7397563;19;20191;-74
2023/01/02 01:49:21;;;;;;;3.00;1.63;;;;;11.00;94199.00;;;;7398616;19;20136;-74
2023/01/02 01:52:03;;;;;;;2.38;1.77;;;;;10.80;94193.00;;;;7396328;19;20136;-74
2023/01/02 01:54:38;;;;;;;4.65;1.83;;;;;10.70;94178.00;;;;7395050;19;20144;-74
2023/01/02 01:57:33;;;;;;;2.97;1.55;;;;;10.30;94186.00;;;;7395151;19;20473;-74
2023/01/02 02:00:05;;;;;;;6.93;2.22;;;;;10.00;94184.00;;;;7393833;19;20151;-74
2023/01/02 02:02:56;;;;;;;6.85;2.00;;;;;10.10;94178.00;;;;6892323;19;9722264;-70
2023/01/02 02:05:32;;;;;;;3.35;1.60;;;;;10.30;94179.00;;;;7398911;19;20621;-70
2023/01/02 02:08:20;;;;;;;4.68;1.65;;;;;10.20;94167.00;;;;7396781;19;20220;-72
2023/01/02 02:10:48;;;;;;;3.90;1.65;;;;;10.20;94177.00;;;;7398066;19;20125;-70
2023/01/02 02:13:22;;;;;;;5.57;1.80;;;;;10.20;94166.00;;;;7396533;19;20160;-70
2023/01/02 02:16:22;;;;;;;3.90;1.98;;;;;10.10;94169.00;;;;7391624;19;20521;-70
2023/01/02 02:19:42;;;;;;;6.30;1.95;;;;;10.10;94178.00;;;;7395958;19;20184;-70
2023/01/02 02:22:37;;;;;;;6.32;2.40;;;;;10.10;94172.00;;;;7395856;19;20171;-70
2023/01/02 02:25:36;;;;;;;5.53;1.70;;;;;10.10;94169.00;;;;7395304;19;20150;-73
2023/01/02 02:28:24;;;;;;;3.53;1.80;;;;;10.10;94166.00;;;;7397387;19;20136;-70
2023/01/02 02:31:14;;;;;;;2.65;1.90;;;;;10.20;94170.00;;;;7397257;19;20192;-70
2023/01/02 02:33:59;;;;;;;3.90;1.73;;;;;9.90;94154.00;;;;7398007;19;20133;-70
2023/01/02 02:37:00;;;;;;;5.20;2.00;;;;;10.00;94160.00;;;;7395460;19;20606;-70
2023/01/02 02:39:38;;;;;;;7.70;1.87;;;;;9.70;94158.00;;;;7395888;19;20209;-70
2023/01/02 02:42:39;;;;;;;7.40;1.92;;;;;9.60;94151.00;;;;7395924;19;20136;-70
2023/01/02 02:45:13;;;;;;;3.23;2.10;;;;;9.50;94148.00;;;;7396495;19;20189;-73
2023/01/02 02:48:01;;;;;;;9.17;1.90;;;;;9.70;94149.00;;;;7396464;19;20595;-70
2023/01/02 02:50:40;;;;;;;8.33;2.07;;;;;9.90;94144.00;;;;7397139;19;20188;-70
2023/01/02 02:53:23;;;;;;;5.63;2.37;;;;;10.10;94144.00;;;;7397366;19;20135;-70
2023/01/02 02:55:57;;;;;;;5.77;2.17;;;;;10.10;94140.00;;;;7394685;19;20832;-70
2023/01/02 02:58:31;;;;;;;6.30;2.17;;;;;9.80;94144.00;;;;7396087;19;20144;-70
2023/01/02 03:01:05;;;;;;;5.27;2.00;;;;;10.00;94138.00;;;;7395059;19;20137;-70
2023/01/02 03:03:45;;;;;;;7.00;2.05;;;;;10.10;94141.00;;;;7395113;19;20638;-70
2023/01/02 03:06:18;;;;;;;6.47;2.10;;;;;9.90;94141.00;;;;7396115;19;20140;-70
2023/01/02 03:09:07;;;;;;;6.73;2.10;;;;;9.80;94135.00;;;;7395708;19;20136;-69
2023/01/02 03:12:02;;;;;;;3.63;1.92;;;;;9.80;94128.00;;;;7394168;19;20157;-70
2023/01/02 03:14:53;;;;;;;3.27;1.90;;;;;10.00;94141.00;;;;7395481;19;20618;-72
2023/01/02 03:18:03;;;;;;;4.32;1.90;;;;;10.30;94132.00;;;;7395106;19;20132;-72
2023/01/02 03:20:43;;;;;;;3.25;1.90;;;;;10.50;94120.00;;;;7392671;19;20149;-72
2023/01/02 03:23:19;;;;;;;6.47;1.97;;;;;10.60;94117.00;;;;7394937;19;20509;-72
2023/01/02 03:25:54;;;;;;;4.75;1.75;;;;;10.70;94122.00;;;;7396564;19;20158;-72
2023/01/02 03:28:25;;;;;;;5.88;1.73;;;;;10.80;94134.00;;;;7404418;19;20127;-69
2023/01/02 03:30:59;;;;;;;2.87;1.80;;;;;10.80;94126.00;;;;7400965;19;20559;-72
2023/01/02 03:33:37;;;;;;;6.07;2.00;;;;;10.90;94122.00;;;;7402286;19;20132;-72
2023/01/02 03:36:12;;;;;;;4.45;1.80;;;;;10.80;94125.00;;;;7401016;19;20622;-73
2023/01/02 03:39:13;;;;;;;3.92;1.83;;;;;11.00;94126.00;;;;7402700;19;20490;-70
2023/01/02 03:42:17;;;;;;;4.00;1.70;;;;;11.00;94127.00;;;;7397660;19;20667;-70
2023/01/02 03:45:02;;;;;;;5.20;1.80;;;;;11.10;94123.00;;;;7399258;19;20148;-72
2023/01/02 03:47:47;;;;;;;2.75;1.63;;;;;11.30;94131.00;;;;7400397;19;20519;-72
2023/01/02 03:50:39;;;;;;;5.28;1.70;;;;;11.20;94118.00;;;;7402808;19;20141;-70
2023/01/02 03:53:06;;;;;;;2.70;1.70;;;;;11.30;94117.00;;;;7403178;19;20145;-70
2023/01/02 03:55:48;;;;;;;3.38;1.48;;;;;11.70;94109.00;;;;7400768;19;20128;-71
2023/01/02 03:58:40;;;;;;;2.70;1.52;;;;;11.70;94105.00;;;;7401015;19;20142;-70
2023/01/02 04:01:38;;;;;;;6.30;1.63;;;;;11.70;94121.00;;;;7399614;19;20153;-70
2023/01/02 04:04:18;;;;;;;3.53;1.42;;;;;11.80;94112.00;;;;7400107;19;20607;-70
2023/01/02 04:06:58;;;;;;;2.95;1.50;;;;;12.00;94109.00;;;;7399963;19;20152;-70
2023/01/02 04:09:28;;;;;;;4.65;1.48;;;;;12.10;94116.00;;;;7400031;19;20168;-72
2023/01/02 04:12:10;;;;;;;2.08;1.38;;;;;12.50;94105.00;;;;7400415;19;20148;-70
2023/01/02 04:14:54;;;;;;;2.97;1.30;;;;;12.40;94109.00;;;;7401776;19;20125;-72
2023/01/02 04:17:33;;;;;;;2.42;1.42;;;;;12.50;94106.00;;;;7401420;19;20137;-70
2023/01/02 04:20:14;;;;;;;1.92;1.25;;;;;12.70;94103.00;;;;7401396;19;20148;-72
2023/01/02 04:23:01;;;;;;;6.03;1.42;;;;;12.60;94097.00;;;;7401123;19;20139;-70
2023/01/02 04:25:51;;;;;;;6.80;1.60;;;;;12.70;94099.00;;;;7400280;19;20184;-72
2023/01/02 04:28:31;;;;;;;5.50;1.38;;;;;12.70;94101.00;;;;7399351;19;20157;-71
2023/01/02 04:31:30;;;;;;;3.92;1.40;;;;;12.80;94099.00;;;;7400029;19;20137;-70
2023/01/02 04:34:08;;;;;;;5.00;1.38;;;;;12.80;94099.00;;;;7400690;19;20129;-70
2023/01/02 04:36:40;;;;;;;2.95;1.80;;;;;12.80;94093.00;;;;7398699;19;20133;-70
2023/01/02 04:39:17;;;;;;;3.53;1.15;;;;;12.70;94102.00;;;;7398003;19;20141;-70
2023/01/02 04:41:44;;;;;;;9.45;1.20;;;;;12.90;94094.00;;;;7399365;19;20204;-70
2023/01/02 04:44:12;;;;;;;5.20;1.33;;;;;12.80;94097.00;;;;7400740;19;20136;-70
2023/01/02 04:46:47;;;;;;;3.05;1.40;;;;;12.80;94102.00;;;;7396570;19;20607;-70
2023/01/02 04:49:15;;;;;;;2.05;1.38;;;;;12.20;94107.00;;;;7401573;19;20137;-70
2023/01/02 04:51:42;;;;;;;6.68;1.23;;;;;12.10;94105.00;;;;7398456;19;20156;-70
2023/01/02 04:54:16;;;;;;;4.70;1.40;;;;;12.00;94109.00;;;;7398871;19;20515;-70
2023/01/02 04:56:43;;;;;;;3.72;1.30;;;;;12.30;94103.00;;;;7397943;19;20133;-70
2023/01/02 04:59:10;;;;;;;4.28;1.30;;;;;12.30;94112.00;;;;7401841;19;20177;-70
2023/01/02 05:02:00;;;;;;;2.10;1.13;;;;;12.30;94098.00;;;;7393879;19;20644;-70
2023/01/02 05:04:34;;;;;;;3.13;1.13;;;;;12.40;94113.00;;;;7400932;19;20133;-73
2023/01/02 05:07:12;;;;;;;4.10;1.58;;;;;12.30;94108.00;;;;7400154;19;20185;-70
2023/01/02 05:09:40;;;;;;;2.13;1.40;;;;;12.40;94104.00;;;;7398543;19;20599;-70
2023/01/02 05:12:10;;;;;;;4.20;1.35;;;;;12.10;94103.00;;;;7400489;19;20152;-70
2023/01/02 05:14:44;;;;;;;3.03;1.40;;;;;12.00;94107.00;;;;7398718;19;20598;-70
2023/01/02 05:17:11;;;;;;;3.65;1.45;;;;;12.10;94112.00;;;;7391101;19;20132;-70
2023/01/02 05:19:39;;;;;;;3.67;1.50;;;;;12.20;94121.00;;;;7396886;19;20129;-70
2023/01/02 05:24:59;;;;;;;5.25;1.92;;;;;11.90;94126.00;;;;7396658;19;20137;-70
2023/01/02 05:27:33;;;;;;;4.50;1.58;;;;;11.80;94131.00;;;;7399183;19;20135;-73
2023/01/02 05:30:03;;;;;;;5.55;1.67;;;;;12.00;94123.00;;;;7398926;19;20121;-70
2023/01/02 05:32:31;;;;;;;4.20;1.08;;;;;11.90;94128.00;;;;7396581;19;20591;-70
2023/01/02 05:35:06;;;;;;;4.40;1.38;;;;;11.90;94123.00;;;;7399224;19;20142;-70
2023/01/02 05:37:33;;;;;;;4.25;1.50;;;;;11.70;94125.00;;;;7397334;19;20546;-70
2023/01/02 05:40:01;;;;;;;3.30;1.23;;;;;11.30;94139.00;;;;7397849;19;20133;-73
2023/01/02 05:42:37;;;;;;;5.28;1.27;;;;;11.60;94134.00;;;;7395588;19;20152;-70
2023/01/02 05:45:07;;;;;;;5.90;1.40;;;;;11.70;94137.00;;;;7399112;19;20137;-70
2023/01/02 05:47:34;;;;;;;4.05;1.20;;;;;11.80;94141.00;;;;7396670;19;20152;-70
2023/01/02 05:50:08;;;;;;;4.43;1.50;;;;;12.20;94127.00;;;;7388332;19;20152;-70
2023/01/02 05:52:36;;;;;;;6.18;1.58;;;;;12.20;94129.00;;;;7397916;19;20161;-70
2023/01/02 05:55:11;;;;;;;4.88;1.45;;;;;12.30;94135.00;;;;7397258;19;20153;-70
2023/01/02 05:57:45;;;;;;;4.60;1.38;;;;;12.20;94123.00;;;;7398937;19;20141;-70
2023/01/02 06:00:13;;;;;;;5.13;1.40;;;;;12.20;94137.00;;;;7395226;19;20156;-70
2023/01/02 06:02:41;;;;;;;2.83;1.38;;;;;12.10;94128.00;;;;7394899;19;20176;-70
2023/01/02 06:05:22;;;;;;;4.85;1.40;;;;;12.00;94132.00;;;;7395558;19;20490;-70
2023/01/02 06:07:52;;;;;;;5.40;1.60;;;;;11.90;94132.00;;;;7396612;19;20148;-70
2023/01/02 06:10:26;;;;;;;4.32;1.30;;;;;11.70;94139.00;;;;7397524;19;20146;-72
2023/01/02 06:12:53;;;;;;;4.82;1.42;;;;;11.70;94144.00;;;;7398861;19;20136;-69
2023/01/02 06:15:21;;;;;;;5.47;1.50;;;;;12.00;94133.00;;;;7396442;19;20132;-70
2023/01/02 06:17:55;;;;;;;3.08;1.50;;;;;11.80;94143.00;;;;7394580;19;20180;-70
2023/01/02 06:20:22;;;;;;;5.97;1.40;;;;;11.80;94143.00;;;;7394830;19;20149;-70
2023/01/02 06:22:49;;;;;;;1.90;1.10;;;;;11.90;94141.00;;;;7394917;19;20603;-71
2023/01/02 06:25:26;;;;;;;1.88;1.02;;;;;12.00;94141.00;;;;7396197;19;20598;-71
2023/01/02 06:27:54;;;;;;;5.10;1.42;;;;;12.40;94134.00;;;;7396097;19;20156;-70
2023/01/02 06:30:22;;;;;;;3.40;1.50;;;;;12.50;94138.00;;;;7396933;19;20133;-70
2023/01/02 06:32:56;;;;;;;3.67;1.50;;;;;12.10;94149.00;;;;7395835;19;20162;-70
2023/01/02 06:35:23;;;;;;;2.58;1.13;;;;;11.70;94149.00;;;;7395837;19;20152;-70
2023/01/02 06:37:53;;;;;;;3.72;1.30;;;;;11.50;94155.00;;;;7397334;19;20136;-70
2023/01/02 06:40:26;;;;;;;4.10;1.10;;;;;11.70;94167.00;;;;7395773;19;20164;-70
2023/01/02 06:42:54;;;;;;;2.90;1.08;;;;;11.80;94156.00;;;;7394464;19;20592;-70
2023/01/02 06:45:26;;;;;;;5.10;1.45;;;;;12.10;94156.00;;;;7396632;19;20157;-70
2023/01/02 06:48:05;;;;;;;2.38;1.30;;;;;11.80;94159.00;;;;7396023;19;20607;-71
2023/01/02 06:50:32;;;;;;;1.25;0.95;;;;;11.70;94161.00;;;;7397492;19;20440;-71
2023/01/02 06:53:01;;;;;;;5.28;2.28;;;;;11.70;94164.00;;;;7394917;19;20141;-70
2023/01/02 06:55:37;;;;;;;2.28;1.05;;;;;12.00;94168.00;;;;7395592;19;20215;-71
2023/01/02 06:58:05;;;;;;;4.70;1.17;;;;;12.30;94177.00;;;;7391567;19;20143;-71
2023/01/02 07:00:38;;;;;;;2.53;1.02;;;;;11.90;94176.00;;;;7395659;19;20198;-71
2023/01/02 07:03:20;;;;;;;2.53;1.05;;;;;11.80;94180.00;;;;7399208;19;20642;-71
2023/01/02 07:05:48;;;;;;;2.05;1.10;;;;;11.70;94181.00;;;;7401950;19;20159;-70
2023/01/02 07:08:22;;;;;;;4.65;1.30;;;;;11.40;94176.00;;;;7403512;19;20142;-71
2023/01/02 07:10:49;;;;;;;3.47;1.00;;;;;11.00;94184.00;;;;7402973;19;20128;-71
2023/01/02 07:13:19;;;;;;;7.80;1.55;;;;;11.40;94181.00;;;;7403218;19;20258;-70
2023/01/02 07:15:54;;;;;;;4.80;1.25;;;;;11.30;94185.00;;;;7402734;19;20552;-70
2023/01/02 07:18:22;;;;;;;5.07;1.25;;;;;11.30;94187.00;;;;7400727;19;20137;-71
2023/01/02 07:20:55;;;;;;;2.60;1.20;;;;;11.40;94188.00;;;;7402493;19;20137;-71
2023/01/02 07:23:32;;;;;;;4.07;1.00;;;;;11.50;94184.00;;;;7399423;19;20744;-71
2023/01/02 07:26:02;;;;;;;3.28;1.50;;;;;11.80;94186.00;;;;7396860;19;20136;-71
2023/01/02 07:28:31;;;;;;;3.33;1.27;;;;;12.30;94190.00;;;;7393680;19;20185;-72
2023/01/02 07:31:09;;;;;;;4.18;1.17;;;;;12.40;94194.00;;;;7402180;19;20210;-72
2023/01/02 07:33:37;;;;;;;2.50;1.00;;;;;12.40;94185.00;;;;7395041;19;20137;-73
2023/01/02 07:36:09;;;;;;;4.70;1.35;;;;;12.90;94182.00;;;;7390003;19;20615;-73
2023/01/02 07:38:44;;;;;;;4.68;1.15;;;;;13.00;94191.00;;;;7398531;19;20152;-73
2023/01/02 07:41:15;;;;;;;5.53;1.33;;;;;13.10;94193.00;;;;7399496;19;20196;-73
2023/01/02 07:43:55;;;;;;;3.30;1.05;;;;;13.20;94193.00;;;;7398245;19;20169;-73
2023/01/02 07:46:26;;;;;;;5.93;1.20;;;;;13.30;94206.00;;;;7396375;19;20133;-73
2023/01/02 07:49:02;;;;;;;3.00;1.17;;;;;13.60;94197.00;;;;7396406;19;20165;-73
2023/01/02 07:51:31;;;;;;;3.22;1.08;;;;;13.50;94207.00;;;;7395452;19;20503;-73
2023/01/02 07:53:59;;;;;;;6.25;1.52;;;;;13.60;94204.00;;;;7398008;19;20148;-73
2023/01/02 07:56:33;;;;;;;3.75;1.17;;;;;13.60;94196.00;;;;7396287;19;20212;-73
2023/01/02 07:59:00;;;;;;;5.53;1.45;;;;;13.40;94206.00;;;;7399122;19;20146;-73
2023/01/02 08:01:32;;;;;;;10.25;1.65;;;;;13.40;94207.00;;;;7395129;19;20117;-73
2023/01/02 08:04:12;;;;;;;6.70;1.27;;;;;13.50;94209.00;;;;7392192;19;20748;-74
2023/01/02 08:06:40;;;;;;;3.50;1.25;;;;;13.60;94204.00;;;;7395499;19;20155;-73
2023/01/02 08:09:14;;;;;;;5.10;1.23;;;;;13.50;94208.00;;;;7395642;19;20614;-74
2023/01/02 08:11:42;;;;;;;4.63;1.45;;;;;13.70;94218.00;;;;7395062;19;20856;-73
2023/01/02 08:14:09;;;;;;;4.80;1.70;;;;;13.90;94229.00;;;;7399239;19;20161;-74
2023/01/02 08:16:52;;;;;;;2.22;1.40;;;;;13.90;94222.00;;;;7398507;19;20128;-73
2023/01/02 08:19:19;;;;;;;5.68;1.42;;;;;13.90;94230.00;;;;7396410;19;20117;-73
2023/01/02 08:21:53;;;;;;;6.82;1.67;;;;;13.90;94236.00;;;;7394972;19;20607;-73
2023/01/02 08:24:21;;;;;;;3.70;1.27;;;;;14.00;94233.00;;;;7393768;19;20447;-72
2023/01/02 08:26:48;;;;;;;3.88;1.40;;;;;14.00;94234.00;;;;7397310;19;20591;-74
2023/01/02 08:29:22;;;;;;;8.00;1.85;;;;;14.00;94243.00;;;;7397112;19;20596;-73
2023/01/02 08:31:50;;;;;;;3.50;1.30;;;;;13.90;94236.00;;;;7393943;19;20151;-73
2023/01/02 08:34:17;;;;;;;4.38;1.60;;;;;13.90;94232.00;;;;7394142;19;20137;-73
2023/01/02 08:36:51;;;;;;;4.88;1.48;;;;;13.90;94243.00;;;;7394039;19;20147;-73
2023/01/02 08:39:19;;;;;;;7.15;1.70;;;;;14.10;94246.00;;;;7387537;19;20170;-73
2023/01/02 08:41:46;;;;;;;6.85;1.52;;;;;14.10;94245.00;;;;7392599;19;20121;-73
2023/01/02 08:44:20;;;;;;;5.22;1.40;;;;;14.20;94243.00;;;;7396695;19;20124;-73
2023/01/02 08:46:48;;;;;;;8.48;1.38;;;;;14.30;94239.00;;;;7395619;19;20142;-73
2023/01/02 08:49:22;;;;;;;5.40;1.35;;;;;14.40;94236.00;;;;7396385;19;20147;-73
2023/01/02 08:51:56;;;;;;;8.15;1.40;;;;;14.20;94245.00;;;;7391070;19;20174;-73
2023/01/02 08:54:24;;;;;;;3.33;1.20;;;;;14.40;94249.00;;;;7394961;19;20144;-73
2023/01/02 08:56:51;;;;;;;4.28;1.80;;;;;14.40;94240.00;;;;7393768;19;20133;-73
2023/01/02 08:59:25;;;;;;;3.60;1.65;;;;;15.10;94242.00;;;;7396408;19;20141;-73
2023/01/02 09:01:53;;;;;;;7.85;1.83;;;;;15.90;94236.00;;;;7393173;19;20188;-72
2023/01/02 09:04:21;;;;;;;3.80;1.50;;;;;16.00;94256.00;;;;7395842;19;20157;-72
2023/01/02 09:06:56;;;;;;;5.15;1.40;;;;;15.90;94255.00;;;;7394530;19;20629;-73
2023/01/02 09:09:23;;;;;;;4.13;1.52;;;;;15.80;94260.00;;;;7395445;19;20117;-73
2023/01/02 09:11:51;;;;;;;6.93;2.03;;;;;16.10;94258.00;;;;7395717;19;20946;-73
2023/01/02 09:14:28;;;;;;;4.00;1.60;;;;;16.30;94258.00;;;;7394743;19;20156;-73
2023/01/02 09:16:56;;;;;;;7.55;1.45;;;;;16.10;94270.00;;;;7395628;19;20137;-73
2023/01/02 09:19:25;;;;;;;5.72;1.75;;;;;16.30;94267.00;;;;7393681;19;20141;-73
2023/01/02 09:22:00;;;;;;;9.43;1.80;;;;;16.10;94272.00;;;;7394611;19;20578;-73
2023/01/02 09:24:30;;;;;;;5.03;1.88;;;;;15.90;94275.00;;;;7393068;19;20494;-73
2023/01/02 09:26:59;;;;;;;6.07;1.70;;;;;16.00;94285.00;;;;7393439;19;20148;-73
2023/01/02 09:29:33;;;;;;;11.82;2.72;;;;;15.70;94283.00;;;;7393973;19;20459;-73
2023/01/02 09:32:00;;;;;;;9.15;2.00;;;;;15.40;94285.00;;;;7394364;19;20594;-74
2023/01/02 09:34:30;;;;;;;5.93;1.70;;;;;15.30;94291.00;;;;7395363;19;20200;-73
2023/01/02 09:37:04;;;;;;;6.13;1.50;;;;;15.00;94308.00;;;;7394064;19;20658;-73
2023/01/02 09:39:31;;;;;;;9.15;1.60;;;;;15.10;94309.00;;;;7393923;19;20196;-73
2023/01/02 09:42:00;;;;;;;10.80;1.73;;;;;14.90;94322.00;;;;7392686;19;20131;-73
2023/01/02 09:44:56;;;;;;;11.75;2.05;;;;;14.70;94326.00;;;;7392763;19;20593;-72
2023/01/02 09:47:31;;;;;;;6.45;2.05;;;;;14.70;94326.00;;;;7394675;19;20794;-73
2023/01/02 09:50:12;;;;;;;5.85;1.73;;;;;14.70;94323.00;;;;7393595;19;20630;-74
2023/01/02 09:52:43;;;;;;;6.07;1.77;;;;;14.90;94327.00;;;;7394374;19;20475;-74
2023/01/02 09:55:26;;;;;;;12.68;2.22;;;;;15.20;94320.00;;;;7394729;19;20126;-73
2023/01/02 09:58:39;;;;;;;8.25;1.80;;;;;15.40;94325.00;;;;7394010;19;20159;-73
2023/01/02 10:01:25;;;;;;;8.02;2.35;;;;;15.60;94330.00;;;;7390856;19;20167;-73
2023/01/02 10:04:31;;;;;;;9.27;2.13;;;;;15.70;94340.00;;;;7389765;19;20168;-73
2023/01/02 10:07:23;;;;;;;8.13;1.63;;;;;15.80;94330.00;;;;7393046;19;20120;-73
2023/01/02 10:10:24;;;;;;;5.85;1.88;;;;;15.60;94341.00;;;;7392910;19;20136;-72
2023/01/02 10:13:25;;;;;;;8.27;2.15;;;;;15.80;94347.00;;;;7393847;19;20140;-74
2023/01/02 10:16:20;;;;;;;7.47;2.20;;;;;15.40;94334.00;;;;7389909;19;20153;-73
2023/01/02 10:18:57;;;;;;;6.78;1.92;;;;;15.10;94344.00;;;;7394030;19;20204;-72
2023/01/02 10:21:31;;;;;;;10.57;2.20;;;;;15.30;94352.00;;;;7392492;19;20132;-72
2023/01/02 10:24:14;;;;;;;7.25;2.25;;;;;15.20;94338.00;;;;7390857;19;20530;-73
2023/01/02 10:26:51;;;;;;;6.70;1.85;;;;;15.20;94331.00;;;;7392279;19;20155;-72
2023/01/02 10:29:34;;;;;;;5.85;1.75;;;;;15.60;94333.00;;;;7392567;19;20644;-72
2023/01/02 10:32:14;;;;;;;8.35;2.22;;;;;15.90;94335.00;;;;7393139;19;20861;-73
2023/01/02 10:35:04;;;;;;;10.35;2.08;;;;;16.30;94317.00;;;;7393210;19;20145;-73
2023/01/02 10:37:34;;;;;;;7.38;2.10;;;;;16.40;94331.00;;;;7397542;19;20144;-72
2023/01/02 10:40:08;;;;;;;10.20;2.45;;;;;16.40;94327.00;;;;7396881;19;20144;-72
2023/01/02 10:42:36;;;;;;;7.90;2.13;;;;;16.90;94324.00;;;;7399080;19;20124;-73
2023/01/02 10:45:06;;;;;;;8.70;2.53;;;;;17.30;94325.00;;;;7399972;19;20121;-73
2023/01/02 10:47:40;;;;;;;8.38;2.08;;;;;18.00;94311.00;;;;7400857;19;20129;-72
2023/01/02 10:50:17;;;;;;;9.70;2.25;;;;;18.20;94326.00;;;;7397928;19;20152;-72
2023/01/02 10:53:02;;;;;;;10.20;2.05;;;;;17.70;94333.00;;;;7399152;19;20617;-73
2023/01/02 10:55:44;;;;;;;13.27;2.28;;;;;17.20;94336.00;;;;7398335;19;20136;-73
2023/01/02 10:58:25;;;;;;;13.35;2.33;;;;;17.20;94323.00;;;;7395783;19;20137;-73
2023/01/02 11:01:17;;;;;;;8.50;2.08;;;;;17.60;94332.00;;;;7398765;19;20524;-73
2023/01/02 11:03:57;;;;;;;10.45;2.40;;;;;16.90;94337.00;;;;7395019;19;20534;-74
2023/01/02 11:06:29;;;;;;;6.75;2.03;;;;;17.20;94341.00;;;;7394057;19;20574;-73
2023/01/02 11:09:20;;;;;;;11.57;2.10;;;;;16.80;94342.00;;;;7397302;19;20168;-72
2023/01/02 11:11:50;;;;;;;10.65;2.65;;;;;15.90;94345.00;;;;7397603;19;20522;-74
2023/01/02 11:14:31;;;;;;;9.63;2.40;;;;;15.60;94344.00;;;;7396920;19;20143;-73
2023/01/02 11:17:05;;;;;;;8.70;2.10;;;;;15.70;94346.00;;;;7396152;19;20600;-73
2023/01/02 11:19:54;;;;;;;9.52;2.20;;;;;15.30;94348.00;;;;7398286;19;20159;-72
2023/01/02 11:22:37;;;;;;;5.75;2.13;;;;;15.60;94353.00;;;;7398943;19;20136;-74
2023/01/02 11:25:23;;;;;;;12.57;2.53;;;;;15.10;94346.00;;;;7397049;19;20591;-73
2023/01/02 11:27:56;;;;;;;6.43;2.30;;;;;15.10;94349.00;;;;7398882;19;20149;-73
2023/01/02 11:30:35;;;;;;;4.15;2.25;;;;;15.00;94355.00;;;;7400412;19;20142;-73
2023/01/02 11:33:18;;;;;;;9.30;2.40;;;;;14.80;94356.00;;;;7394636;19;20148;-72
2023/01/02 11:36:17;;;;;;;7.78;2.17;;;;;14.90;94365.00;;;;7383526;19;20211;-73
2023/01/02 11:38:57;;;;;;;9.95;1.83;;;;;14.70;94367.00;;;;7397842;19;20163;-73
2023/01/02 11:44:34;;;;;;;7.90;2.20;;;;;14.70;94358.00;;;;7394659;19;20224;-74
2023/01/02 11:47:12;;;;;;;6.53;2.17;;;;;14.80;94355.00;;;;7390918;19;20148;-72
2023/01/02 11:49:47;;;;;;;10.95;2.00;;;;;14.60;94360.00;;;;7396218;19;20140;-73
2023/01/02 11:52:39;;;;;;;9.80;2.35;;;;;14.30;94361.00;;;;7399088;19;20586;-73
2023/01/02 11:55:16;;;;;;;10.27;2.20;;;;;14.10;94353.00;;;;7394344;19;20461;-74
2023/01/02 11:58:00;;;;;;;8.95;2.00;;;;;14.50;94354.00;;;;7392880;19;20216;-73
2023/01/02 12:00:34;;;;;;;7.93;2.03;;;;;14.40;94355.00;;;;7393023;19;20160;-73
2023/01/02 12:03:34;;;;;;;6.57;2.33;;;;;14.20;94355.00;;;;7391858;19;20635;-73
2023/01/02 12:06:19;;;;;;;7.88;2.25;;;;;14.20;94348.00;;;;7393450;19;20159;-74
2023/01/02 12:09:12;;;;;;;4.85;2.05;;;;;14.10;94348.00;;;;7394041;19;20156;-74
2023/01/02 12:11:52;;;;;;;10.95;2.45;;;;;13.90;94358.00;;;;7395328;19;20165;-73
2023/01/02 12:14:51;;;;;;;10.15;2.30;;;;;13.90;94361.00;;;;7394807;19;20148;-73
2023/01/02 12:17:59;;;;;;;9.20;2.15;;;;;13.60;94354.00;;;;7396661;19;20148;-73
2023/01/02 12:20:50;;;;;;;7.05;2.28;;;;;13.70;94355.00;;;;7392385;19;20133;-73
2023/01/02 12:23:31;;;;;;;7.80;2.40;;;;;13.80;94365.00;;;;7393529;19;20157;-73
2023/01/02 12:26:08;;;;;;;12.77;2.33;;;;;13.70;94352.00;;;;7393655;19;20600;-73
2023/01/02 12:28:58;;;;;;;7.50;2.78;;;;;13.90;94361.00;;;;7395648;19;20490;-73
2023/01/02 12:32:00;;;;;;;7.68;2.03;;;;;14.00;94378.00;;;;7393321;19;20188;-74
2023/01/02 12:35:10;;;;;;;6.47;2.20;;;;;14.50;94386.00;;;;7392178;19;20163;-73
2023/01/02 12:37:57;;;;;;;8.57;2.38;;;;;14.40;94386.00;;;;7394932;19;20169;-74
2023/01/02 12:40:39;;;;;;;14.18;2.40;;;;;14.20;94392.00;;;;7395252;19;20152;-73
2023/01/02 12:43:53;;;;;;;9.27;2.60;;;;;14.10;94371.00;;;;7396438;19;20125;-73
2023/01/02 12:46:38;;;;;;;8.88;2.85;;;;;14.20;94357.00;;;;7393997;19;20132;-74
2023/01/02 12:49:32;;;;;;;6.28;2.47;;;;;13.90;94361.00;;;;7395585;19;20129;-75
2023/01/02 12:52:27;;;;;;;9.80;2.42;;;;;13.60;94371.00;;;;7397090;19;20144;-73
2023/01/02 12:55:30;;;;;;;7.22;2.53;;;;;14.70;94363.00;;;;7397625;19;20462;-73
2023/01/02 12:58:06;;;;;;;7.88;2.30;;;;;14.20;94376.00;;;;7389541;19;20142;-74
2023/01/02 13:00:59;;;;;;;9.07;3.30;;;;;14.20;94385.00;;;;7395413;19;20123;-73
2023/01/02 13:03:50;;;;;;;8.32;2.30;;;;;14.50;94400.00;;;;7389345;19;20188;-73
2023/01/02 13:07:02;;;;;;;8.90;2.25;;;;;14.00;94382.00;;;;7395949;19;20145;-75
2023/01/02 13:09:38;;;;;;;6.15;2.20;;;;;13.90;94388.00;;;;7392864;19;20155;-73
2023/01/02 13:12:21;;;;;;;11.05;2.60;;;;;14.00;94379.00;;;;7393976;19;20188;-74